Time;durP1;ratioP1;P1;durP2;ratioP2;P2;SDS_P1;SDS_P2;PMS_P1;PMS_P2;Temp;Humidity;BMP_temperature;BMP_pressure;BME280_temperature;BME280_humidity;BME280_pressure;Samples;Min_cycle;Max_cycle;Signal;HPM_P1;HPM_P2
2022/08/08 00:02:17;;;;;;;16.75;15.60;;;21.70;43.50;;;;;;5016822;28;20045;-79
2022/08/08 00:04:45;;;;;;;17.20;16.23;;;21.70;43.90;;;;;;5016034;28;20049;-80
2022/08/08 00:07:33;;;;;;;17.58;16.60;;;21.60;44.10;;;;;;5031661;28;20384;-80
2022/08/08 00:10:07;;;;;;;18.63;17.52;;;21.60;44.50;;;;;;5031881;28;20057;-79
2022/08/08 00:12:41;;;;;;;17.20;16.30;;;21.50;45.00;;;;;;5015555;28;20056;-79
2022/08/08 00:15:08;;;;;;;17.75;16.65;;;21.40;45.30;;;;;;5015054;28;20072;-80
2022/08/08 00:17:38;;;;;;;18.10;17.10;;;21.40;45.20;;;;;;5014933;28;20562;-79
2022/08/08 00:20:06;;;;;;;18.40;16.90;;;21.40;45.50;;;;;;5033207;28;20036;-80
2022/08/08 00:22:40;;;;;;;16.98;15.98;;;21.40;45.80;;;;;;5031464;28;20468;-80
2022/08/08 00:25:09;;;;;;;16.65;15.55;;;21.30;46.00;;;;;;5031640;28;20033;-80
2022/08/08 00:27:36;;;;;;;16.90;16.00;;;21.30;46.20;;;;;;5031457;28;20463;-80
2022/08/08 00:30:07;;;;;;;16.85;15.73;;;21.20;46.60;;;;;;5014554;28;20048;-79
2022/08/08 00:32:39;;;;;;;15.80;14.90;;;21.10;47.00;;;;;;5031259;28;20391;-80
2022/08/08 00:35:34;;;;;;;17.10;15.85;;;21.10;47.10;;;;;;5015111;28;20403;-80
2022/08/08 00:38:06;;;;;;;17.15;16.05;;;21.00;47.40;;;;;;5031976;28;20268;-80
2022/08/08 00:41:11;;;;;;;16.15;15.10;;;21.10;47.40;;;;;;5050784;28;20151;-80
2022/08/08 00:43:43;;;;;;;17.23;16.13;;;21.10;47.30;;;;;;5045057;28;20052;-79
2022/08/08 00:46:27;;;;;;;17.42;16.42;;;21.00;47.80;;;;;;5022538;28;20052;-79
2022/08/08 00:49:05;;;;;;;16.60;15.70;;;21.00;48.10;;;;;;5032626;28;20064;-80
2022/08/08 00:51:40;;;;;;;16.42;15.52;;;21.00;48.20;;;;;;5032764;28;20036;-79
2022/08/08 00:54:43;;;;;;;16.27;15.20;;;20.90;48.90;;;;;;5049707;28;20048;-80
2022/08/08 00:57:17;;;;;;;14.93;13.93;;;20.90;48.50;;;;;;5032633;28;20040;-80
2022/08/08 01:00:22;;;;;;;15.43;14.55;;;20.80;48.70;;;;;;5032474;28;20085;-80
2022/08/08 01:03:25;;;;;;;15.35;14.45;;;20.80;48.80;;;;;;5030478;28;20041;-80
2022/08/08 01:05:51;;;;;;;14.75;13.90;;;20.80;49.00;;;;;;5049583;28;20053;-80
2022/08/08 01:08:54;;;;;;;14.55;13.75;;;20.80;49.20;;;;;;5049248;28;20037;-80
2022/08/08 01:11:44;;;;;;;16.20;15.00;;;20.80;49.20;;;;;;5049681;28;20045;-80
2022/08/08 01:14:25;;;;;;;15.73;14.67;;;20.80;49.20;;;;;;5049506;28;20066;-80
2022/08/08 01:17:18;;;;;;;14.75;13.75;;;20.70;49.50;;;;;;5048449;28;20287;-80
2022/08/08 01:20:18;;;;;;;15.82;14.30;;;20.60;49.80;;;;;;5032486;28;20044;-80
2022/08/08 01:23:07;;;;;;;14.40;13.50;;;20.50;50.20;;;;;;5051375;28;20037;-79
2022/08/08 01:25:45;;;;;;;15.05;14.13;;;20.50;50.20;;;;;;5033802;28;20338;-80
2022/08/08 01:28:35;;;;;;;14.65;13.82;;;20.60;50.20;;;;;;5051586;28;20029;-79
2022/08/08 01:31:26;;;;;;;16.30;15.27;;;20.40;50.50;;;;;;5050787;28;20021;-79
2022/08/08 01:34:15;;;;;;;15.98;14.98;;;20.40;50.90;;;;;;5051434;28;20044;-79
2022/08/08 01:36:50;;;;;;;15.98;14.93;;;20.20;51.40;;;;;;5028997;28;20365;-79
2022/08/08 01:39:53;;;;;;;15.75;14.85;;;20.20;51.30;;;;;;5028204;28;20052;-79
2022/08/08 01:42:38;;;;;;;15.93;14.70;;;20.10;51.50;;;;;;5028870;28;20038;-79
2022/08/08 01:45:12;;;;;;;16.70;15.50;;;20.20;51.40;;;;;;5028150;28;20060;-80
2022/08/08 01:48:16;;;;;;;16.23;15.23;;;20.20;51.30;;;;;;5028643;28;20382;-79
2022/08/08 01:50:51;;;;;;;16.40;15.27;;;20.20;51.50;;;;;;5012232;28;20033;-80
2022/08/08 01:53:33;;;;;;;16.42;15.43;;;20.20;51.60;;;;;;5011892;28;20038;-79
2022/08/08 01:56:23;;;;;;;16.80;15.57;;;20.10;51.70;;;;;;5028909;28;20044;-79
2022/08/08 01:59:26;;;;;;;16.38;15.23;;;20.10;51.80;;;;;;5011837;28;20041;-79
2022/08/08 02:02:26;;;;;;;17.17;15.48;;;20.00;52.00;;;;;;5027968;28;20040;-79
2022/08/08 02:05:13;;;;;;;16.77;15.77;;;20.00;52.20;;;;;;5028638;28;20512;-79
2022/08/08 02:07:45;;;;;;;15.70;14.65;;;20.00;52.40;;;;;;5028478;28;20041;-80
2022/08/08 02:10:23;;;;;;;16.27;15.07;;;20.00;52.30;;;;;;5028440;28;20033;-79
2022/08/08 02:12:51;;;;;;;17.60;16.38;;;20.10;52.30;;;;;;5013824;28;20045;-79
2022/08/08 02:15:51;;;;;;;17.48;16.35;;;20.00;52.50;;;;;;5032734;28;20036;-79
2022/08/08 02:18:26;;;;;;;16.20;15.20;;;20.00;52.30;;;;;;5035021;28;20027;-79
2022/08/08 02:24:05;;;;;;;17.00;15.80;;;20.00;52.10;;;;;;5044827;28;20055;-79
2022/08/08 02:27:02;;;;;;;16.20;15.02;;;20.00;52.20;;;;;;5033318;28;20037;-79
2022/08/08 02:29:31;;;;;;;16.13;15.02;;;19.90;52.40;;;;;;5032170;28;20037;-79
2022/08/08 02:32:16;;;;;;;16.95;15.95;;;19.90;52.40;;;;;;5048572;28;20511;-79
2022/08/08 02:34:51;;;;;;;17.42;15.98;;;19.90;52.40;;;;;;5050526;28;20024;-79
2022/08/08 02:37:43;;;;;;;16.48;15.18;;;19.90;52.60;;;;;;5032900;28;20055;-79
2022/08/08 02:40:39;;;;;;;15.95;15.05;;;19.80;52.50;;;;;;5019189;28;20030;-79
2022/08/08 02:43:30;;;;;;;17.27;15.98;;;19.70;52.70;;;;;;5010873;28;20459;-80
2022/08/08 02:46:22;;;;;;;16.63;15.57;;;19.70;52.70;;;;;;5037316;28;20391;-80
2022/08/08 02:49:06;;;;;;;16.83;15.63;;;19.70;53.00;;;;;;5033005;28;20029;-80
2022/08/08 02:51:55;;;;;;;16.08;15.18;;;19.70;52.70;;;;;;5052895;28;20036;-80
2022/08/08 02:54:40;;;;;;;16.02;15.02;;;19.70;52.80;;;;;;5052739;28;20399;-79
2022/08/08 02:57:30;;;;;;;16.40;15.35;;;19.80;52.70;;;;;;5053984;28;20036;-80
2022/08/08 03:00:14;;;;;;;16.38;15.48;;;19.70;52.80;;;;;;5052919;28;20043;-80
2022/08/08 03:02:59;;;;;;;17.10;15.98;;;19.60;52.90;;;;;;5053572;28;20044;-80
2022/08/08 03:05:43;;;;;;;16.50;15.50;;;19.70;52.70;;;;;;5052643;28;20430;-80
2022/08/08 03:08:43;;;;;;;16.90;15.90;;;19.70;52.60;;;;;;5054349;28;20383;-80
2022/08/08 03:11:31;;;;;;;16.88;15.68;;;19.70;52.70;;;;;;5052638;28;20029;-80
2022/08/08 03:14:06;;;;;;;16.55;15.65;;;19.70;52.60;;;;;;5052649;28;20048;-79
2022/08/08 03:17:04;;;;;;;16.77;15.63;;;19.60;52.90;;;;;;5053509;28;20030;-80
2022/08/08 03:20:05;;;;;;;15.77;14.88;;;19.50;53.10;;;;;;5038164;28;20064;-79
2022/08/08 03:22:34;;;;;;;16.25;15.05;;;19.50;53.30;;;;;;5038888;28;20414;-79
2022/08/08 03:25:04;;;;;;;16.80;15.80;;;19.50;53.20;;;;;;5053620;28;20048;-79
2022/08/08 03:27:37;;;;;;;16.50;15.50;;;19.40;53.30;;;;;;5052268;28;20021;-80
2022/08/08 03:30:10;;;;;;;16.52;15.63;;;19.40;53.50;;;;;;5052113;28;20036;-80
2022/08/08 03:35:22;;;;;;;16.73;15.73;;;19.30;53.70;;;;;;5054040;28;20044;-79
2022/08/08 03:37:48;;;;;;;16.80;15.90;;;19.30;53.80;;;;;;5052216;28;20033;-79
2022/08/08 03:40:16;;;;;;;16.65;15.50;;;19.30;53.80;;;;;;5018757;28;20378;-79
2022/08/08 03:42:42;;;;;;;16.27;15.38;;;19.20;54.00;;;;;;5016432;28;20037;-79
2022/08/08 03:45:16;;;;;;;16.50;15.57;;;19.10;54.10;;;;;;5031743;28;20040;-79
2022/08/08 03:47:42;;;;;;;16.85;15.73;;;19.10;54.10;;;;;;5035113;28;20036;-79
2022/08/08 03:50:18;;;;;;;17.13;16.02;;;19.10;54.00;;;;;;5052296;28;20352;-80
2022/08/08 03:52:44;;;;;;;16.17;15.25;;;19.10;54.10;;;;;;5052259;28;20084;-80
2022/08/08 03:55:12;;;;;;;17.25;15.95;;;19.30;53.90;;;;;;5034819;28;20048;-79
2022/08/08 03:57:42;;;;;;;15.95;14.95;;;19.10;54.10;;;;;;5035285;28;20541;-80
2022/08/08 04:00:11;;;;;;;16.55;15.55;;;19.10;54.20;;;;;;5034622;28;20040;-79
2022/08/08 04:02:37;;;;;;;16.67;15.57;;;19.00;54.30;;;;;;5051448;28;20040;-79
2022/08/08 04:05:04;;;;;;;16.00;15.10;;;19.00;54.40;;;;;;5035424;28;20067;-80
2022/08/08 04:07:38;;;;;;;16.73;15.60;;;19.00;54.30;;;;;;5051795;28;20024;-79
2022/08/08 04:10:07;;;;;;;17.30;16.20;;;19.00;54.60;;;;;;5035198;28;20080;-79
2022/08/08 04:12:33;;;;;;;16.65;15.25;;;19.00;54.40;;;;;;5051591;28;20025;-79
2022/08/08 04:15:00;;;;;;;16.20;15.32;;;18.90;54.50;;;;;;5034953;28;20037;-80
2022/08/08 04:17:26;;;;;;;17.02;15.98;;;19.00;54.50;;;;;;5051005;28;20037;-80
2022/08/08 04:19:52;;;;;;;16.65;15.68;;;19.00;54.30;;;;;;5051607;28;20036;-79
2022/08/08 04:22:18;;;;;;;17.63;16.25;;;19.10;54.10;;;;;;5051665;28;20025;-79
2022/08/08 04:24:44;;;;;;;16.77;15.43;;;19.00;54.30;;;;;;5051343;28;20032;-79
2022/08/08 04:27:10;;;;;;;16.90;15.85;;;19.10;54.30;;;;;;5034809;28;20048;-79
2022/08/08 04:29:36;;;;;;;17.30;15.88;;;19.00;54.40;;;;;;5032848;28;20041;-80
2022/08/08 04:32:04;;;;;;;16.88;15.63;;;19.00;55.10;;;;;;5051294;28;20100;-80
2022/08/08 04:34:30;;;;;;;16.58;15.52;;;18.90;54.50;;;;;;5034972;28;20421;-80
2022/08/08 04:36:56;;;;;;;16.17;15.25;;;18.80;54.80;;;;;;5051446;28;20029;-79
2022/08/08 04:39:22;;;;;;;16.50;15.45;;;18.80;55.00;;;;;;5024748;28;20400;-79
2022/08/08 04:41:48;;;;;;;16.70;15.65;;;18.70;55.10;;;;;;5014253;28;20046;-79
2022/08/08 04:44:15;;;;;;;17.45;16.25;;;18.70;55.30;;;;;;5040474;28;20043;-80
2022/08/08 04:46:41;;;;;;;16.75;15.60;;;18.60;55.50;;;;;;5051814;28;20041;-79
2022/08/08 04:49:07;;;;;;;17.05;15.77;;;18.50;55.70;;;;;;5034606;28;20507;-80
2022/08/08 04:51:33;;;;;;;16.77;15.77;;;18.50;55.80;;;;;;5051334;28;20034;-79
2022/08/08 04:54:00;;;;;;;17.05;16.05;;;18.50;56.00;;;;;;5050931;28;20710;-80
2022/08/08 04:56:26;;;;;;;17.58;16.58;;;18.40;55.90;;;;;;5034457;28;20037;-79
2022/08/08 04:58:52;;;;;;;17.55;16.52;;;18.40;56.00;;;;;;5034370;28;20413;-79
2022/08/08 05:01:18;;;;;;;18.63;17.17;;;18.40;56.00;;;;;;5050704;28;20025;-79
2022/08/08 05:03:44;;;;;;;17.90;16.73;;;18.30;56.30;;;;;;5051014;28;20044;-79
2022/08/08 05:06:10;;;;;;;17.60;16.55;;;18.30;56.30;;;;;;5050924;28;20032;-79
2022/08/08 05:08:36;;;;;;;18.55;17.25;;;18.40;56.20;;;;;;5050579;28;20040;-80
2022/08/08 05:11:02;;;;;;;18.88;17.48;;;18.50;56.00;;;;;;5034112;28;20033;-79
2022/08/08 05:13:28;;;;;;;18.48;17.27;;;18.40;55.80;;;;;;5049694;28;20055;-80
2022/08/08 05:15:55;;;;;;;18.90;17.50;;;18.30;56.20;;;;;;5051473;28;20029;-79
2022/08/08 05:18:21;;;;;;;18.75;17.65;;;18.30;56.40;;;;;;5051816;28;20040;-79
2022/08/08 05:20:47;;;;;;;19.17;17.98;;;18.30;56.40;;;;;;5050599;28;20025;-79
2022/08/08 05:23:13;;;;;;;17.23;16.15;;;18.30;56.10;;;;;;5050347;28;20037;-80
2022/08/08 05:25:39;;;;;;;17.35;16.13;;;18.30;56.00;;;;;;5050555;28;20029;-79
2022/08/08 05:28:05;;;;;;;17.13;16.15;;;18.30;56.00;;;;;;5050640;28;20025;-79
2022/08/08 05:30:31;;;;;;;17.15;16.10;;;18.30;56.20;;;;;;5051619;28;20029;-79
2022/08/08 05:32:58;;;;;;;15.98;15.00;;;18.30;56.40;;;;;;5050661;28;20517;-79
2022/08/08 05:35:24;;;;;;;15.63;14.60;;;18.40;55.90;;;;;;5051585;28;20481;-79
2022/08/08 05:37:59;;;;;;;16.80;15.70;;;18.50;55.60;;;;;;5050137;28;20476;-79
2022/08/08 05:40:26;;;;;;;15.68;14.77;;;18.70;55.20;;;;;;5016759;28;20414;-79
2022/08/08 05:42:53;;;;;;;16.98;15.70;;;18.80;54.80;;;;;;5014268;28;20017;-79
2022/08/08 05:45:19;;;;;;;16.38;15.05;;;18.90;54.90;;;;;;5027978;28;20066;-79
2022/08/08 05:47:45;;;;;;;16.15;14.90;;;18.90;54.70;;;;;;5014017;28;20045;-79
2022/08/08 05:50:11;;;;;;;15.93;14.90;;;18.90;54.80;;;;;;5014021;28;20051;-79
2022/08/08 05:52:37;;;;;;;16.42;15.30;;;18.90;54.80;;;;;;5030031;28;20037;-79
2022/08/08 05:55:05;;;;;;;16.70;15.73;;;18.90;54.60;;;;;;4997630;28;20037;-79
2022/08/08 05:57:34;;;;;;;16.00;14.93;;;19.10;54.20;;;;;;5013995;28;20021;-79
2022/08/08 06:00:03;;;;;;;17.02;15.57;;;19.20;54.20;;;;;;5030119;28;20025;-79
2022/08/08 06:05:14;;;;;;;17.67;16.58;;;19.50;53.40;;;;;;5022409;28;20052;-79
2022/08/08 06:07:40;;;;;;;18.25;17.25;;;19.60;53.20;;;;;;5030167;28;20029;-79
2022/08/08 06:10:10;;;;;;;18.15;17.15;;;19.70;52.60;;;;;;5030086;28;20037;-79
2022/08/08 06:12:36;;;;;;;17.27;16.17;;;19.80;52.60;;;;;;5030069;28;20036;-79
2022/08/08 06:15:06;;;;;;;18.35;17.13;;;19.80;52.60;;;;;;5012566;28;20029;-79
2022/08/08 06:17:34;;;;;;;17.50;16.40;;;19.90;52.40;;;;;;4997624;28;20589;-78
2022/08/08 06:20:03;;;;;;;16.85;15.95;;;19.80;52.40;;;;;;5013470;28;20049;-79
2022/08/08 06:22:29;;;;;;;18.25;16.42;;;19.90;52.10;;;;;;5013646;28;20025;-79
2022/08/08 06:24:55;;;;;;;19.52;18.42;;;20.10;52.10;;;;;;4996709;28;20053;-79
2022/08/08 06:27:39;;;;;;;16.70;15.40;;;20.10;51.70;;;;;;5013628;28;20408;-79
2022/08/08 06:30:10;;;;;;;16.88;15.77;;;20.10;51.90;;;;;;5028971;28;20460;-79
2022/08/08 06:32:44;;;;;;;17.25;16.25;;;20.30;51.50;;;;;;5028732;28;20388;-79
2022/08/08 06:35:14;;;;;;;17.17;16.13;;;20.40;51.20;;;;;;5030441;28;20033;-79
2022/08/08 06:37:46;;;;;;;19.20;18.05;;;20.50;51.00;;;;;;5029754;28;20467;-79
2022/08/08 06:40:14;;;;;;;16.33;15.32;;;20.60;50.50;;;;;;5025957;28;20033;-80
2022/08/08 06:42:51;;;;;;;17.10;15.88;;;20.70;50.70;;;;;;5013571;28;20044;-80
2022/08/08 06:45:17;;;;;;;18.02;16.70;;;20.80;50.20;;;;;;5017642;28;20029;-80
2022/08/08 06:47:43;;;;;;;17.40;16.33;;;21.10;49.90;;;;;;5032968;28;20044;-80
2022/08/08 06:50:09;;;;;;;18.23;17.17;;;21.20;49.80;;;;;;5049464;28;20468;-80
2022/08/08 06:52:36;;;;;;;17.65;16.38;;;21.30;49.10;;;;;;5032721;28;20048;-80
2022/08/08 06:55:05;;;;;;;18.50;17.42;;;21.40;48.90;;;;;;5049329;28;20029;-80
2022/08/08 06:57:32;;;;;;;17.70;16.70;;;21.30;48.90;;;;;;5049268;28;20021;-80
2022/08/08 06:59:58;;;;;;;17.45;16.55;;;21.20;49.10;;;;;;5049069;28;20029;-80
2022/08/08 07:02:27;;;;;;;19.30;17.95;;;21.30;49.20;;;;;;5048450;28;20044;-79
2022/08/08 07:05:05;;;;;;;19.67;18.38;;;21.50;49.40;;;;;;5032470;28;20041;-80
2022/08/08 07:07:42;;;;;;;18.95;17.90;;;21.80;48.30;;;;;;5049284;28;20036;-80
2022/08/08 07:10:09;;;;;;;20.08;19.08;;;22.10;47.50;;;;;;5032235;28;20041;-80
2022/08/08 07:12:42;;;;;;;18.70;17.50;;;22.10;47.20;;;;;;5032261;28;20040;-80
2022/08/08 07:15:10;;;;;;;19.65;18.45;;;22.00;47.40;;;;;;5031582;28;20399;-79
2022/08/08 07:17:43;;;;;;;19.98;18.80;;;22.20;47.70;;;;;;5048957;28;20482;-79
2022/08/08 07:20:10;;;;;;;19.90;18.45;;;22.30;47.10;;;;;;5032427;28;20480;-80
2022/08/08 07:23:03;;;;;;;20.40;19.27;;;22.30;46.80;;;;;;5032487;28;20033;-80
2022/08/08 07:25:33;;;;;;;20.83;19.20;;;22.30;46.40;;;;;;5032236;28;20065;-80
2022/08/08 07:28:06;;;;;;;20.42;19.20;;;22.50;46.70;;;;;;5033012;28;20037;-80
2022/08/08 07:30:32;;;;;;;21.90;20.70;;;22.70;46.80;;;;;;5031862;28;20032;-80
2022/08/08 07:32:58;;;;;;;22.23;20.83;;;22.90;46.40;;;;;;5048824;28;20040;-80
2022/08/08 07:35:24;;;;;;;22.88;21.23;;;23.10;45.50;;;;;;5049172;28;20495;-80
2022/08/08 07:37:50;;;;;;;22.40;21.00;;;23.30;45.30;;;;;;5035773;28;20499;-80
2022/08/08 07:40:16;;;;;;;23.42;22.20;;;23.30;44.80;;;;;;5036170;28;20036;-80
2022/08/08 07:42:43;;;;;;;24.23;22.73;;;23.40;44.40;;;;;;4999925;28;20041;-80
2022/08/08 07:45:09;;;;;;;25.20;23.70;;;23.40;44.40;;;;;;5015071;28;20054;-80
2022/08/08 07:47:35;;;;;;;24.98;23.67;;;23.40;44.40;;;;;;5052007;28;20057;-80
2022/08/08 07:50:02;;;;;;;22.40;21.27;;;23.30;44.50;;;;;;5052548;28;20059;-80
2022/08/08 07:52:28;;;;;;;22.98;21.73;;;23.30;44.20;;;;;;5035913;28;20029;-79
2022/08/08 07:54:57;;;;;;;22.98;21.58;;;23.40;44.20;;;;;;5052515;28;20044;-79
2022/08/08 07:57:46;;;;;;;23.30;22.00;;;23.60;44.00;;;;;;5052033;28;20040;-80
2022/08/08 08:00:15;;;;;;;23.58;22.17;;;23.70;43.60;;;;;;5035119;28;20399;-80
2022/08/08 08:03:07;;;;;;;32.72;30.90;;;23.90;43.40;;;;;;5051915;28;20017;-79
2022/08/08 08:05:40;;;;;;;23.08;21.65;;;23.90;43.20;;;;;;5052078;28;20041;-80
2022/08/08 08:08:18;;;;;;;24.48;23.02;;;23.80;43.20;;;;;;5052336;28;20028;-80
2022/08/08 08:10:45;;;;;;;22.95;21.58;;;23.90;43.00;;;;;;5052237;28;20032;-80
2022/08/08 08:13:30;;;;;;;25.30;23.92;;;23.90;43.10;;;;;;5052239;28;20025;-80
2022/08/08 08:16:02;;;;;;;23.35;21.85;;;24.10;42.80;;;;;;5052467;28;20025;-80
2022/08/08 08:18:45;;;;;;;23.60;22.33;;;24.10;42.50;;;;;;5052055;28;20025;-80
2022/08/08 08:21:11;;;;;;;24.83;23.13;;;24.30;42.20;;;;;;5051993;28;20025;-80
2022/08/08 08:23:37;;;;;;;24.92;23.63;;;24.50;41.80;;;;;;5051930;28;20029;-80
2022/08/08 08:26:03;;;;;;;24.98;23.63;;;24.60;41.50;;;;;;5051882;28;20048;-80
2022/08/08 08:28:29;;;;;;;28.15;26.55;;;24.50;41.70;;;;;;5052117;28;20468;-79
2022/08/08 08:30:57;;;;;;;31.63;30.05;;;24.60;41.40;;;;;;5034176;28;20041;-80
2022/08/08 08:33:23;;;;;;;27.58;25.98;;;24.70;41.10;;;;;;5035128;28;20059;-79
2022/08/08 08:35:49;;;;;;;26.83;25.42;;;24.90;41.20;;;;;;5051416;28;20036;-80
2022/08/08 08:38:15;;;;;;;28.10;26.70;;;25.00;40.90;;;;;;5051417;28;20040;-80
2022/08/08 08:40:41;;;;;;;28.23;26.63;;;25.20;40.70;;;;;;5051730;28;20044;-80
2022/08/08 08:43:08;;;;;;;27.48;26.08;;;25.30;40.30;;;;;;5034841;28;20060;-80
2022/08/08 08:45:35;;;;;;;30.05;28.08;;;25.40;39.80;;;;;;5020026;28;20041;-80
2022/08/08 08:48:02;;;;;;;30.90;29.35;;;25.60;39.70;;;;;;5051383;28;20037;-80
2022/08/08 08:50:29;;;;;;;30.55;28.90;;;25.70;39.20;;;;;;5034674;28;20060;-80
2022/08/08 08:52:56;;;;;;;29.15;27.65;;;25.80;39.20;;;;;;5051439;28;20025;-80
2022/08/08 08:55:22;;;;;;;29.98;28.45;;;25.70;39.30;;;;;;5034660;28;20044;-80
2022/08/08 08:57:49;;;;;;;29.00;27.27;;;25.80;39.10;;;;;;5051348;28;20029;-80
2022/08/08 09:00:15;;;;;;;29.85;28.35;;;25.90;38.50;;;;;;5033671;28;20573;-80
2022/08/08 09:02:42;;;;;;;31.30;29.48;;;25.90;38.20;;;;;;5034731;28;20029;-80
2022/08/08 09:05:09;;;;;;;33.88;31.77;;;26.00;38.10;;;;;;5051077;28;20507;-80
2022/08/08 09:07:35;;;;;;;29.70;28.13;;;26.00;38.20;;;;;;5050957;28;20044;-80
2022/08/08 09:10:02;;;;;;;31.67;29.77;;;25.90;38.40;;;;;;5051149;28;20047;-79
2022/08/08 09:12:29;;;;;;;31.95;30.23;;;25.90;38.20;;;;;;5052380;28;20379;-80
2022/08/08 09:14:56;;;;;;;38.35;36.45;;;26.00;37.70;;;;;;5050606;28;20036;-80
2022/08/08 09:17:25;;;;;;;28.83;27.33;;;26.00;37.80;;;;;;5033839;28;20029;-80
2022/08/08 09:19:54;;;;;;;30.23;28.63;;;26.20;38.00;;;;;;5050811;28;20387;-80
2022/08/08 09:22:21;;;;;;;30.60;29.00;;;26.30;37.30;;;;;;5033919;28;20391;-80
2022/08/08 09:24:51;;;;;;;30.45;28.85;;;26.40;37.10;;;;;;5034074;28;20051;-80
2022/08/08 09:27:20;;;;;;;33.87;32.17;;;26.50;36.90;;;;;;5050421;28;20032;-80
2022/08/08 09:29:49;;;;;;;34.72;32.83;;;26.70;36.80;;;;;;5033683;28;20276;-80
2022/08/08 09:32:17;;;;;;;53.60;50.75;;;26.70;36.20;;;;;;5049784;28;20033;-80
2022/08/08 09:34:46;;;;;;;31.23;29.42;;;26.70;36.60;;;;;;5050391;28;20521;-80
2022/08/08 09:37:12;;;;;;;31.52;29.95;;;26.60;37.00;;;;;;5033739;28;20029;-80
2022/08/08 09:40:06;;;;;;;43.00;40.92;;;26.80;36.40;;;;;;5050253;28;20032;-80
2022/08/08 09:42:43;;;;;;;31.95;30.25;;;26.80;35.80;;;;;;5050184;28;20024;-80
2022/08/08 09:45:24;;;;;;;1999.90;999.90;;;27.00;35.40;;;;;;5035348;28;20037;-80
2022/08/08 09:47:50;;;;;;;1999.90;999.90;;;27.30;34.40;;;;;;5050037;28;20656;-80
2022/08/08 09:50:22;;;;;;;1999.90;999.90;;;27.40;34.60;;;;;;5033305;28;20056;-80
2022/08/08 09:52:50;;;;;;;1999.90;999.90;;;27.40;34.60;;;;;;5050412;28;20021;-80
2022/08/08 09:55:17;;;;;;;1999.90;999.90;;;27.50;34.30;;;;;;5033631;28;20041;-80
2022/08/08 09:57:55;;;;;;;1999.90;999.90;;;27.60;33.20;;;;;;5033074;28;20040;-80
2022/08/08 10:00:23;;;;;;;1999.90;999.90;;;27.60;32.90;;;;;;5049245;28;20029;-80
2022/08/08 10:02:51;;;;;;;1999.90;999.90;;;27.70;33.10;;;;;;5033415;28;20033;-80
2022/08/08 10:05:18;;;;;;;1999.90;999.90;;;27.90;33.30;;;;;;5049900;28;20040;-80
2022/08/08 10:07:45;;;;;;;1999.90;999.90;;;28.20;33.70;;;;;;5050133;28;20029;-80
2022/08/08 10:10:11;;;;;;;1999.90;999.90;;;28.50;33.00;;;;;;5049823;28;20483;-80
2022/08/08 10:12:38;;;;;;;1999.90;999.90;;;28.70;31.30;;;;;;5050124;28;20029;-80
2022/08/08 10:15:06;;;;;;;1999.90;999.90;;;28.70;31.40;;;;;;5032621;28;20056;-80
2022/08/08 10:17:45;;;;;;;1999.90;999.90;;;28.70;31.60;;;;;;5050175;28;20025;-80
2022/08/08 10:20:11;;;;;;;1999.90;999.90;;;28.60;31.30;;;;;;5049636;28;20017;-80
2022/08/08 10:22:49;;;;;;;1999.90;999.90;;;28.60;31.30;;;;;;5033216;28;20048;-80
2022/08/08 10:25:19;;;;;;;1999.90;999.90;;;28.50;31.30;;;;;;5049784;28;20672;-80
2022/08/08 10:27:45;;;;;;;1999.90;999.90;;;28.60;31.80;;;;;;5032731;28;20033;-80
2022/08/08 10:30:11;;;;;;;1999.90;999.90;;;28.40;31.50;;;;;;5049262;28;20040;-80
2022/08/08 10:32:40;;;;;;;1999.90;999.90;;;28.30;31.90;;;;;;5049789;28;20471;-80
2022/08/08 10:35:12;;;;;;;1999.90;999.90;;;28.40;32.20;;;;;;5029733;28;20037;-80
2022/08/08 10:37:40;;;;;;;1999.90;999.90;;;28.50;32.10;;;;;;5014123;28;20029;-80
2022/08/08 10:40:14;;;;;;;1999.90;999.90;;;28.80;31.90;;;;;;5028700;28;20459;-80
2022/08/08 10:42:40;;;;;;;1999.90;999.90;;;28.90;31.60;;;;;;5032917;28;20514;-80
2022/08/08 10:45:07;;;;;;;1999.90;999.90;;;29.10;31.50;;;;;;5032079;28;20045;-80
2022/08/08 10:47:33;;;;;;;1999.90;999.90;;;28.80;31.00;;;;;;5033013;28;20045;-80
2022/08/08 10:50:01;;;;;;;1999.90;999.90;;;28.80;31.20;;;;;;5033435;28;20041;-80
2022/08/08 10:52:30;;;;;;;1999.90;999.90;;;28.70;31.70;;;;;;5032881;28;20403;-80
2022/08/08 10:54:58;;;;;;;1999.90;999.90;;;28.80;31.30;;;;;;5033232;28;20403;-80
2022/08/08 10:57:24;;;;;;;1999.90;999.90;;;29.00;31.30;;;;;;5049497;28;20025;-80
2022/08/08 10:59:54;;;;;;;1999.90;999.90;;;29.10;31.30;;;;;;5033154;28;20041;-80
2022/08/08 11:02:29;;;;;;;1999.90;999.90;;;29.20;31.00;;;;;;5032651;28;20033;-80
2022/08/08 11:05:00;;;;;;;1999.90;999.90;;;29.40;30.70;;;;;;5049189;28;20612;-80
2022/08/08 11:07:33;;;;;;;1999.90;999.90;;;29.60;30.30;;;;;;5033418;28;20045;-80
2022/08/08 11:10:04;;;;;;;1999.90;999.90;;;29.60;30.10;;;;;;5033504;28;20033;-80
2022/08/08 11:12:32;;;;;;;1999.90;999.90;;;29.40;30.40;;;;;;5042569;28;20029;-80
2022/08/08 11:15:00;;;;;;;1999.90;999.90;;;29.50;30.00;;;;;;5036711;28;20025;-80
2022/08/08 11:17:30;;;;;;;1999.90;999.90;;;29.40;30.00;;;;;;5036381;28;20041;-80
2022/08/08 11:19:57;;;;;;;;;;;29.50;30.30;;;;;;5053738;28;20032;-80
2022/08/08 11:22:28;;;;;;;1999.90;999.90;;;29.70;30.00;;;;;;5052958;28;19932;-80
2022/08/08 11:25:00;;;;;;;1999.90;999.90;;;29.80;29.70;;;;;;5036499;28;20530;-80
2022/08/08 11:27:32;;;;;;;1999.90;999.90;;;29.90;29.60;;;;;;5020334;28;20407;-80
2022/08/08 11:29:59;;;;;;;1999.90;999.90;;;30.00;30.00;;;;;;5036705;28;20479;-80
2022/08/08 11:32:26;;;;;;;1999.90;999.90;;;30.20;29.30;;;;;;5036183;28;20036;-80
2022/08/08 11:35:02;;;;;;;1999.90;999.90;;;30.30;29.10;;;;;;5019623;28;20037;-80
2022/08/08 11:37:28;;;;;;;1999.90;999.90;;;30.20;28.80;;;;;;5036527;28;20033;-80
2022/08/08 11:39:55;;;;;;;1999.90;999.90;;;30.00;29.30;;;;;;5035601;28;20036;-80
2022/08/08 11:42:21;;;;;;;1999.90;999.90;;;30.10;29.50;;;;;;5052907;28;20036;-80
2022/08/08 11:44:47;;;;;;;1999.90;999.90;;;30.20;29.20;;;;;;5022114;28;20036;-80
2022/08/08 11:47:13;;;;;;;1999.90;999.90;;;30.20;29.30;;;;;;5034819;28;20171;-80
2022/08/08 11:49:39;;;;;;;1999.90;999.90;;;30.00;29.50;;;;;;5052698;28;20032;-81
2022/08/08 11:52:06;;;;;;;1999.90;999.90;;;30.00;29.60;;;;;;5052498;28;20032;-81
2022/08/08 11:54:33;;;;;;;1999.90;999.90;;;30.30;29.10;;;;;;5035312;28;20040;-81
2022/08/08 11:57:10;;;;;;;1999.90;999.90;;;30.30;29.10;;;;;;5035966;28;20041;-81
2022/08/08 11:59:41;;;;;;;1999.90;999.90;;;30.30;29.50;;;;;;5052302;28;20578;-81
2022/08/08 12:02:08;;;;;;;1999.90;999.90;;;30.30;29.20;;;;;;5035263;28;20041;-81
2022/08/08 12:04:37;;;;;;;1999.90;999.90;;;30.20;29.30;;;;;;5052223;28;20039;-80
2022/08/08 12:07:06;;;;;;;1999.90;999.90;;;30.30;29.10;;;;;;5035403;28;20037;-80
2022/08/08 12:09:33;;;;;;;1999.90;999.90;;;30.30;29.00;;;;;;5051882;28;20025;-80
2022/08/08 12:11:59;;;;;;;1999.90;999.90;;;30.40;29.30;;;;;;5052297;28;20458;-81
2022/08/08 12:14:26;;;;;;;1999.90;999.90;;;30.30;29.00;;;;;;5052093;28;20052;-81
2022/08/08 12:16:52;;;;;;;1999.90;999.90;;;30.40;29.10;;;;;;5051592;28;20498;-81
2022/08/08 12:19:19;;;;;;;1999.90;999.90;;;30.50;29.10;;;;;;5052072;28;20045;-81
2022/08/08 12:21:46;;;;;;;1999.90;999.90;;;30.60;28.90;;;;;;5051138;28;20392;-81
2022/08/08 12:24:18;;;;;;;1999.90;999.90;;;30.70;29.00;;;;;;5051718;28;20482;-80
2022/08/08 12:26:48;;;;;;;1999.90;999.90;;;30.90;28.30;;;;;;5052239;28;20037;-80
2022/08/08 12:29:25;;;;;;;1999.90;999.90;;;30.90;28.10;;;;;;5051980;28;20132;-81
2022/08/08 12:32:08;;;;;;;1999.90;999.90;;;30.70;28.00;;;;;;5051372;28;20514;-80
2022/08/08 12:34:44;;;;;;;1999.90;999.90;;;30.60;27.70;;;;;;5051619;28;20498;-80
2022/08/08 12:37:17;;;;;;;1999.90;999.90;;;30.60;28.30;;;;;;5033239;28;20045;-80
2022/08/08 12:39:43;;;;;;;1999.90;999.90;;;30.50;28.60;;;;;;5034766;28;20040;-80
2022/08/08 12:42:09;;;;;;;1999.90;999.90;;;30.70;28.60;;;;;;5034917;28;20037;-81
2022/08/08 12:44:36;;;;;;;1999.90;999.90;;;30.70;28.80;;;;;;5040613;28;20512;-80
2022/08/08 12:47:02;;;;;;;1999.90;999.90;;;30.80;28.50;;;;;;5032234;28;20395;-81
2022/08/08 12:49:30;;;;;;;1999.90;999.90;;;30.80;28.40;;;;;;5034625;28;20041;-80
2022/08/08 12:51:56;;;;;;;1999.90;999.90;;;30.80;28.10;;;;;;5034714;28;20407;-80
2022/08/08 12:54:23;;;;;;;1999.90;999.90;;;30.90;27.80;;;;;;5051353;28;20033;-80
2022/08/08 12:56:49;;;;;;;1999.90;999.90;;;30.90;27.80;;;;;;5035255;28;20040;-80